createdAt,value
2016-12-17T00:01:06.140Z,-2.99
2016-12-17T00:02:14.850Z,-2.93
2016-12-17T00:03:23.541Z,-2.94
2016-12-17T00:04:32.228Z,-2.96
2016-12-17T00:05:40.914Z,-2.96
2016-12-17T00:06:49.605Z,-3.02
2016-12-17T00:07:58.292Z,-2.99
2016-12-17T00:09:06.985Z,-2.99
2016-12-17T00:10:15.671Z,-3.05
2016-12-17T00:11:24.385Z,-3.04
2016-12-17T00:12:33.076Z,-3.04
2016-12-17T00:13:41.760Z,-3.04
2016-12-17T00:14:50.447Z,-2.98
2016-12-17T00:15:59.446Z,-2.98
2016-12-17T00:17:08.235Z,-2.93
2016-12-17T00:18:16.928Z,-2.94
2016-12-17T00:19:25.933Z,-2.91
2016-12-17T00:20:34.621Z,-2.98
2016-12-17T00:21:43.315Z,-2.94
2016-12-17T00:22:52.010Z,-2.99
2016-12-17T00:24:01.067Z,-2.94
2016-12-17T00:25:09.755Z,-2.94
2016-12-17T00:26:18.444Z,-2.93
2016-12-17T00:27:27.133Z,-2.9
2016-12-17T00:28:35.821Z,-2.89
2016-12-17T00:29:44.506Z,-2.9
2016-12-17T00:30:53.195Z,-2.93
2016-12-17T00:32:01.878Z,-2.87
2016-12-17T00:33:10.559Z,-2.69
2016-12-17T00:34:19.244Z,-2.68
2016-12-17T00:35:27.964Z,-2.72
2016-12-17T00:36:36.650Z,-2.57
2016-12-17T00:37:45.335Z,-2.47
2016-12-17T00:38:54.024Z,-2.44
2016-12-17T00:40:02.715Z,-2.33
2016-12-17T00:41:11.403Z,-2.34
2016-12-17T00:42:20.090Z,-2.29
2016-12-17T00:43:28.792Z,-2.39
2016-12-17T00:44:37.476Z,-2.29
2016-12-17T00:45:46.187Z,-2.33
2016-12-17T00:46:54.873Z,-2.34
2016-12-17T00:48:03.562Z,-2.32
2016-12-17T00:49:12.243Z,-2.33
2016-12-17T00:50:20.931Z,-2.37
2016-12-17T00:51:29.614Z,-2.32
2016-12-17T00:52:38.302Z,-2.28
2016-12-17T00:53:46.988Z,-2.29
2016-12-17T00:54:55.677Z,-2.28
2016-12-17T00:56:04.398Z,-2.4
2016-12-17T00:57:13.083Z,-2.25
2016-12-17T00:58:21.772Z,-2.36
2016-12-17T00:59:30.461Z,-2.34
2016-12-17T01:00:39.143Z,-2.42
2016-12-17T01:01:47.829Z,-2.34
2016-12-17T01:02:56.513Z,-2.44
2016-12-17T01:04:05.514Z,-2.42
2016-12-17T01:05:14.197Z,-2.42
2016-12-17T01:06:22.879Z,-2.39
2016-12-17T01:07:31.564Z,-2.39
2016-12-17T01:08:40.252Z,-2.33
2016-12-17T01:09:48.939Z,-2.29
2016-12-17T01:10:57.622Z,-2.33
2016-12-17T01:12:06.305Z,-2.32
2016-12-17T01:13:15.029Z,-2.42
2016-12-17T01:14:24.031Z,-2.51
2016-12-17T01:15:32.753Z,-2.62
2016-12-17T01:16:41.434Z,-2.65
2016-12-17T01:17:50.133Z,-2.7
2016-12-17T01:18:58.819Z,-2.75
2016-12-17T01:20:07.507Z,-2.86
2016-12-17T01:21:16.189Z,-2.8
2016-12-17T01:22:24.873Z,-2.99
2016-12-17T01:23:33.564Z,-3.11
2016-12-17T01:24:42.253Z,-3.15
2016-12-17T01:25:50.939Z,-3.08
2016-12-17T01:26:59.629Z,-2.99
2016-12-17T01:28:08.315Z,-3.11
2016-12-17T01:29:17.008Z,-3.08
2016-12-17T01:30:26.007Z,-3.17
2016-12-17T01:31:34.697Z,-3.15
2016-12-17T01:32:43.385Z,-3.25
2016-12-17T01:33:52.072Z,-3.22
2016-12-17T01:35:00.793Z,-3.26
2016-12-17T01:36:09.489Z,-3.3
2016-12-17T01:37:18.170Z,-3.33
2016-12-17T01:38:26.860Z,-3.27
2016-12-17T01:39:35.548Z,-3.29
2016-12-17T01:40:44.241Z,-3.23
2016-12-17T01:41:52.925Z,-3.23
2016-12-17T01:43:01.625Z,-3.3
2016-12-17T01:44:10.628Z,-3.38
2016-12-17T01:45:19.310Z,-3.38
2016-12-17T01:46:27.996Z,-3.23
2016-12-17T01:47:36.686Z,-3.3
2016-12-17T01:48:45.404Z,-3.41
2016-12-17T01:49:54.122Z,-3.3
2016-12-17T01:51:02.809Z,-3.3
2016-12-17T01:52:11.498Z,-3.25
2016-12-17T01:53:20.185Z,-3.3
2016-12-17T01:54:28.864Z,-3.3
2016-12-17T01:55:37.553Z,-3.3
2016-12-17T01:56:46.236Z,-3.23
2016-12-17T01:57:54.925Z,-3.23
2016-12-17T01:59:03.613Z,-3.22
2016-12-17T02:00:12.302Z,-3.27
2016-12-17T02:01:21.011Z,-3.2
2016-12-17T02:02:29.704Z,-3.15
2016-12-17T02:03:38.389Z,-3.15
2016-12-17T02:04:47.084Z,-3.11
2016-12-17T02:05:55.773Z,-3.08
2016-12-17T02:07:04.475Z,-2.96
2016-12-17T02:08:13.174Z,-2.98
2016-12-17T02:09:22.205Z,-2.94
2016-12-17T02:10:30.896Z,-2.9
2016-12-17T02:11:39.578Z,-2.89
2016-12-17T02:12:48.265Z,-2.87
2016-12-17T02:13:56.952Z,-2.91
2016-12-17T02:15:05.640Z,-2.89
2016-12-17T02:16:14.349Z,-2.83
2016-12-17T02:17:23.040Z,-2.75
2016-12-17T02:18:31.734Z,-2.8
2016-12-17T02:19:40.418Z,-2.66
2016-12-17T02:20:49.106Z,-2.76
2016-12-17T02:21:57.801Z,-2.7
2016-12-17T02:23:06.525Z,-2.69
2016-12-17T02:24:15.214Z,-2.65
2016-12-17T02:25:23.900Z,-2.61
2016-12-17T02:26:32.594Z,-2.54
2016-12-17T02:27:41.282Z,-2.54
2016-12-17T02:28:49.967Z,-2.58
2016-12-17T02:29:58.649Z,-2.51
2016-12-17T02:31:07.334Z,-2.52
2016-12-17T02:32:16.020Z,-2.57
2016-12-17T02:33:24.707Z,-2.45
2016-12-17T02:34:33.719Z,-2.42
2016-12-17T02:35:42.404Z,-2.51
2016-12-17T02:36:51.095Z,-2.45
2016-12-17T02:37:59.783Z,-2.42
2016-12-17T02:39:08.474Z,-2.47
2016-12-17T02:40:17.161Z,-2.37
2016-12-17T02:41:25.851Z,-2.47
2016-12-17T02:42:34.533Z,-2.44
2016-12-17T02:43:43.220Z,-2.42
2016-12-17T02:44:51.937Z,-2.37
2016-12-17T02:46:00.622Z,-2.44
2016-12-17T02:47:09.317Z,-2.42
2016-12-17T02:48:18.003Z,-2.51
2016-12-17T02:49:26.689Z,-2.5
2016-12-17T02:50:35.374Z,-2.57
2016-12-17T02:51:44.065Z,-2.51
2016-12-17T02:52:52.748Z,-2.51
2016-12-17T02:54:01.434Z,-2.61
2016-12-17T02:55:10.123Z,-2.54
2016-12-17T02:56:18.808Z,-2.54
2016-12-17T02:57:27.498Z,-2.55
2016-12-17T02:58:36.192Z,-2.5
2016-12-17T02:59:44.886Z,-2.57
2016-12-17T03:00:53.572Z,-2.57
2016-12-17T03:02:02.267Z,-2.54
2016-12-17T03:03:10.950Z,-2.47
2016-12-17T03:04:19.632Z,-2.42
2016-12-17T03:05:28.321Z,-2.52
2016-12-17T03:06:37.035Z,-2.44
2016-12-17T03:07:45.727Z,-2.54
2016-12-17T03:08:54.451Z,-2.45
2016-12-17T03:10:03.135Z,-2.48
2016-12-17T03:11:11.823Z,-2.47
2016-12-17T03:12:20.516Z,-2.39
2016-12-17T03:13:29.205Z,-2.37
2016-12-17T03:14:37.887Z,-2.42
2016-12-17T03:15:46.602Z,-2.47
2016-12-17T03:16:55.304Z,-2.44
2016-12-17T03:18:03.993Z,-2.33
2016-12-17T03:19:12.997Z,-2.28
2016-12-17T03:20:21.999Z,-2.29
2016-12-17T03:21:30.679Z,-2.37
2016-12-17T03:22:39.366Z,-2.22
2016-12-17T03:23:48.055Z,-2.28
2016-12-17T03:24:56.741Z,-2.18
2016-12-17T03:26:05.430Z,-2.25
2016-12-17T03:27:14.128Z,-2.23
2016-12-17T03:28:22.810Z,-2.18
2016-12-17T03:29:31.497Z,-2.18
2016-12-17T03:30:40.181Z,-2.22
2016-12-17T03:31:48.867Z,-2.23
2016-12-17T03:32:57.553Z,-2.14
2016-12-17T03:34:06.241Z,-2.2
2016-12-17T03:35:14.931Z,-2.18
2016-12-17T03:36:23.623Z,-2.26
2016-12-17T03:37:32.314Z,-2.2
2016-12-17T03:38:41.033Z,-2.25
2016-12-17T03:39:49.719Z,-2.22
2016-12-17T03:40:58.436Z,-2.15
2016-12-17T03:42:07.127Z,-2.17
2016-12-17T03:43:15.814Z,-2.2
2016-12-17T03:44:24.500Z,-2.11
2016-12-17T03:45:33.228Z,-2.1
2016-12-17T03:46:41.914Z,-1.93
2016-12-17T03:47:50.627Z,-1.79
2016-12-17T03:48:59.318Z,-1.96
2016-12-17T03:50:08.004Z,-1.81
2016-12-17T03:51:16.694Z,-1.81
2016-12-17T03:52:25.382Z,-1.86
2016-12-17T03:53:34.069Z,-1.79
2016-12-17T03:54:42.758Z,-1.81
2016-12-17T03:55:51.442Z,-1.93
2016-12-17T03:57:00.154Z,-2.08
2016-12-17T03:58:08.841Z,-2.14
2016-12-17T03:59:17.532Z,-2.25
2016-12-17T04:00:26.215Z,-2.33
2016-12-17T04:01:34.902Z,-2.4
2016-12-17T04:02:43.586Z,-2.42
2016-12-17T04:03:52.283Z,-2.39
2016-12-17T04:05:00.975Z,-2.5
2016-12-17T04:06:09.660Z,-2.55
2016-12-17T04:07:18.349Z,-2.55
2016-12-17T04:08:27.040Z,-2.61
2016-12-17T04:09:35.722Z,-2.65
2016-12-17T04:10:44.419Z,-2.7
2016-12-17T04:11:53.106Z,-2.66
2016-12-17T04:13:01.801Z,-2.69
2016-12-17T04:14:10.484Z,-2.7
2016-12-17T04:15:19.168Z,-2.8
2016-12-17T04:16:27.858Z,-2.73
2016-12-17T04:17:36.866Z,-2.78
2016-12-17T04:18:45.552Z,-2.72
2016-12-17T04:19:54.242Z,-2.89
2016-12-17T04:21:02.935Z,-2.91
2016-12-17T04:22:11.641Z,-2.89
2016-12-17T04:23:20.325Z,-2.9
2016-12-17T04:24:29.013Z,-2.8
2016-12-17T04:25:37.698Z,-2.86
2016-12-17T04:26:46.388Z,-2.8
2016-12-17T04:27:55.106Z,-2.76
2016-12-17T04:29:03.792Z,-2.76
2016-12-17T04:30:12.475Z,-2.8
2016-12-17T04:31:21.161Z,-2.73
2016-12-17T04:32:29.846Z,-2.73
2016-12-17T04:33:38.529Z,-2.72
2016-12-17T04:34:47.214Z,-2.68
2016-12-17T04:35:55.904Z,-2.65
2016-12-17T04:37:04.592Z,-2.55
2016-12-17T04:38:13.280Z,-2.51
2016-12-17T04:39:21.994Z,-2.52
2016-12-17T04:40:30.682Z,-2.51
2016-12-17T04:41:39.371Z,-2.44
2016-12-17T04:42:48.063Z,-2.45
2016-12-17T04:43:56.759Z,-2.32
2016-12-17T04:45:05.757Z,-2.4
2016-12-17T04:46:14.441Z,-2.37
2016-12-17T04:47:23.128Z,-2.42
2016-12-17T04:48:31.847Z,-2.39
2016-12-17T04:49:40.539Z,-2.4
2016-12-17T04:50:49.222Z,-2.42
2016-12-17T04:51:58.216Z,-2.4
2016-12-17T04:53:06.906Z,-2.39
2016-12-17T04:54:15.596Z,-2.48
2016-12-17T04:55:24.283Z,-2.42
2016-12-17T04:56:32.974Z,-2.4
2016-12-17T04:57:41.728Z,-2.52
2016-12-17T04:58:50.448Z,-2.33
2016-12-17T04:59:59.135Z,-2.47
2016-12-17T05:01:07.825Z,-2.37
2016-12-17T05:02:16.517Z,-2.47
2016-12-17T05:03:25.204Z,-2.4
2016-12-17T05:04:33.892Z,-2.44
2016-12-17T05:05:42.898Z,-2.36
2016-12-17T05:06:51.581Z,-2.33
2016-12-17T05:08:00.272Z,-2.28
2016-12-17T05:09:09.020Z,-2.28
2016-12-17T05:10:17.710Z,-2.29
2016-12-17T05:11:26.393Z,-2.33
2016-12-17T05:12:35.398Z,-2.33
2016-12-17T05:13:44.087Z,-2.29
2016-12-17T05:14:52.774Z,-2.34
2016-12-17T05:16:01.459Z,-2.44
2016-12-17T05:17:10.146Z,-2.36
2016-12-17T05:18:18.829Z,-2.39
2016-12-17T05:19:27.513Z,-2.36
2016-12-17T05:20:36.199Z,-2.36
2016-12-17T05:21:44.885Z,-2.36
2016-12-17T05:22:53.612Z,-2.32
2016-12-17T05:24:02.301Z,-2.36
2016-12-17T05:25:10.990Z,-2.23
2016-12-17T05:26:19.678Z,-2.33
2016-12-17T05:27:28.361Z,-2.28
2016-12-17T05:28:37.045Z,-2.14
2016-12-17T05:29:45.733Z,-2.28
2016-12-17T05:30:54.423Z,-2.18
2016-12-17T05:32:03.110Z,-2.17
2016-12-17T05:33:11.794Z,-2.15
2016-12-17T05:34:20.481Z,-2.26
2016-12-17T05:35:29.172Z,-2.29
2016-12-17T05:36:37.859Z,-2.26
2016-12-17T05:37:46.542Z,-2.23
2016-12-17T05:38:55.231Z,-2.33
2016-12-17T05:40:03.915Z,-2.36
2016-12-17T05:41:12.604Z,-2.37
2016-12-17T05:42:21.294Z,-2.37
2016-12-17T05:43:29.984Z,-2.32
2016-12-17T05:44:38.676Z,-2.48
2016-12-17T05:45:47.360Z,-2.4
2016-12-17T05:46:56.055Z,-2.48
2016-12-17T05:48:04.741Z,-2.54
2016-12-17T05:49:13.434Z,-2.57
2016-12-17T05:50:22.126Z,-2.57
2016-12-17T05:51:30.812Z,-2.58
2016-12-17T05:52:39.498Z,-2.65
2016-12-17T05:53:48.184Z,-2.55
2016-12-17T05:54:56.875Z,-2.68
2016-12-17T05:56:05.566Z,-2.65
2016-12-17T05:57:14.248Z,-2.55
2016-12-17T05:58:22.946Z,-2.52
2016-12-17T05:59:31.638Z,-2.51
2016-12-17T06:00:40.322Z,-2.52
2016-12-17T06:01:49.013Z,-2.62
2016-12-17T06:02:57.702Z,-2.63
2016-12-17T06:04:06.386Z,-2.54
2016-12-17T06:05:15.075Z,-2.51
2016-12-17T06:06:23.760Z,-2.65
2016-12-17T06:07:32.450Z,-2.65
2016-12-17T06:08:41.141Z,-2.66
2016-12-17T06:09:49.831Z,-2.65
2016-12-17T06:10:58.523Z,-2.65
2016-12-17T06:12:07.209Z,-2.68
2016-12-17T06:13:15.895Z,-2.76
2016-12-17T06:14:24.588Z,-2.7
2016-12-17T06:15:33.281Z,-2.66
2016-12-17T06:16:41.968Z,-2.7
2016-12-17T06:17:50.651Z,-2.78
2016-12-17T06:18:59.334Z,-2.83
2016-12-17T06:20:08.022Z,-2.8
2016-12-17T06:21:16.712Z,-2.91
2016-12-17T06:22:25.427Z,-2.86
2016-12-17T06:23:34.112Z,-2.93
2016-12-17T06:24:42.802Z,-2.93
2016-12-17T06:25:51.492Z,-2.8
2016-12-17T06:27:00.188Z,-2.83
2016-12-17T06:28:08.874Z,-2.87
2016-12-17T06:29:17.564Z,-2.89
2016-12-17T06:30:26.252Z,-2.86
2016-12-17T06:31:34.944Z,-2.86
2016-12-17T06:32:43.636Z,-2.83
2016-12-17T06:33:52.319Z,-2.93
2016-12-17T06:35:01.006Z,-2.87
2016-12-17T06:36:09.692Z,-2.87
2016-12-17T06:37:18.381Z,-2.87
2016-12-17T06:38:27.064Z,-2.89
2016-12-17T06:39:35.757Z,-2.86
2016-12-17T06:40:44.445Z,-2.91
2016-12-17T06:41:53.139Z,-2.94
2016-12-17T06:43:01.823Z,-2.91
2016-12-17T06:44:10.516Z,-2.94
2016-12-17T06:45:19.205Z,-2.91
2016-12-17T06:46:27.893Z,-2.94
2016-12-17T06:47:36.580Z,-2.91
2016-12-17T06:48:45.273Z,-3.01
2016-12-17T06:49:53.959Z,-2.96
2016-12-17T06:51:02.643Z,-2.99
2016-12-17T06:52:11.328Z,-3.02
2016-12-17T06:53:20.012Z,-2.98
2016-12-17T06:54:28.699Z,-2.99
2016-12-17T06:55:37.382Z,-2.94
2016-12-17T06:56:46.065Z,-2.96
2016-12-17T06:57:54.754Z,-2.96
2016-12-17T06:59:03.438Z,-2.99
2016-12-17T07:00:12.127Z,-2.96
2016-12-17T07:01:20.812Z,-3.01
2016-12-17T07:02:29.530Z,-3.02
2016-12-17T07:03:38.247Z,-3.01
2016-12-17T07:04:46.934Z,-3.02
2016-12-17T07:05:55.647Z,-2.98
2016-12-17T07:07:04.331Z,-2.98
2016-12-17T07:08:13.017Z,-3.02
2016-12-17T07:09:21.706Z,-2.99
2016-12-17T07:10:30.393Z,-2.99
2016-12-17T07:11:39.074Z,-2.99
2016-12-17T07:12:47.760Z,-2.96
2016-12-17T07:13:56.453Z,-3.01
2016-12-17T07:15:05.145Z,-2.96
2016-12-17T07:16:13.835Z,-3.04
2016-12-17T07:17:22.524Z,-2.99
2016-12-17T07:18:31.217Z,-2.98
2016-12-17T07:19:39.908Z,-3.02
2016-12-17T07:20:48.590Z,-3.02
2016-12-17T07:21:57.278Z,-3.01
2016-12-17T07:23:05.963Z,-3.04
2016-12-17T07:24:14.655Z,-3.01
2016-12-17T07:25:23.397Z,-2.99
2016-12-17T07:26:32.082Z,-3.01
2016-12-17T07:27:40.776Z,-2.98
2016-12-17T07:28:49.458Z,-3.02
2016-12-17T07:29:58.144Z,-2.96
2016-12-17T07:31:06.829Z,-2.98
2016-12-17T07:32:15.518Z,-3.01
2016-12-17T07:33:24.205Z,-3.01
2016-12-17T07:34:32.891Z,-3.01
2016-12-17T07:35:41.570Z,-3.12
2016-12-17T07:36:50.255Z,-3.19
2016-12-17T07:37:58.945Z,-3.17
2016-12-17T07:39:07.632Z,-3.17
2016-12-17T07:40:16.325Z,-3.08
2016-12-17T07:41:25.006Z,-3.05
2016-12-17T07:42:33.697Z,-3.11
2016-12-17T07:43:42.385Z,-3.17
2016-12-17T07:44:51.074Z,-3.17
2016-12-17T07:45:59.757Z,-3.09
2016-12-17T07:47:08.448Z,-3.15
2016-12-17T07:48:17.133Z,-3.14
2016-12-17T07:49:25.816Z,-3.19
2016-12-17T07:50:34.498Z,-3.25
2016-12-17T07:51:43.186Z,-3.14
2016-12-17T07:52:51.873Z,-3.2
2016-12-17T07:54:00.555Z,-3.22
2016-12-17T07:55:09.241Z,-3.17
2016-12-17T07:56:17.927Z,-3.19
2016-12-17T07:57:26.609Z,-3.17
2016-12-17T07:58:35.298Z,-3.25
2016-12-17T07:59:43.981Z,-3.15
2016-12-17T08:00:52.662Z,-3.17
2016-12-17T08:02:01.667Z,-3.26
2016-12-17T08:03:10.360Z,-3.26
2016-12-17T08:04:19.045Z,-3.17
2016-12-17T08:05:27.733Z,-3.23
2016-12-17T08:06:36.424Z,-3.3
2016-12-17T08:07:45.107Z,-3.25
2016-12-17T08:08:53.790Z,-3.25
2016-12-17T08:10:02.480Z,-3.25
2016-12-17T08:11:11.165Z,-3.22
2016-12-17T08:12:19.856Z,-3.26
2016-12-17T08:13:28.609Z,-3.27
2016-12-17T08:14:37.292Z,-3.2
2016-12-17T08:15:45.986Z,-3.25
2016-12-17T08:16:54.674Z,-3.19
2016-12-17T08:18:03.359Z,-3.27
2016-12-17T08:19:12.043Z,-3.25
2016-12-17T08:20:20.727Z,-3.2
2016-12-17T08:21:29.421Z,-3.17
2016-12-17T08:22:38.109Z,-3.2
2016-12-17T08:23:46.794Z,-3.15
2016-12-17T08:24:55.484Z,-3.09
2016-12-17T08:26:04.171Z,-3.08
2016-12-17T08:27:12.852Z,-3.04
2016-12-17T08:28:21.545Z,-3.12
2016-12-17T08:29:30.225Z,-2.99
2016-12-17T08:30:38.908Z,-3.02
2016-12-17T08:31:47.599Z,-2.99
2016-12-17T08:32:56.287Z,-2.89
2016-12-17T08:34:04.971Z,-2.89
2016-12-17T08:35:13.658Z,-2.83
2016-12-17T08:36:22.344Z,-2.83
2016-12-17T08:37:31.032Z,-2.87
2016-12-17T08:38:39.719Z,-2.87
2016-12-17T08:39:48.413Z,-2.9
2016-12-17T08:40:57.102Z,-2.94
2016-12-17T08:42:05.801Z,-2.99
2016-12-17T08:43:14.491Z,-2.99
2016-12-17T08:44:23.177Z,-3.04
2016-12-17T08:45:31.861Z,-3.08
2016-12-17T08:46:40.584Z,-3.05
2016-12-17T08:47:49.270Z,-3.07
2016-12-17T08:48:57.956Z,-3.08
2016-12-17T08:50:06.639Z,-3.12
2016-12-17T08:51:15.325Z,-3.17
2016-12-17T08:52:24.163Z,-3.12
2016-12-17T08:53:32.852Z,-3.14
2016-12-17T08:54:41.539Z,-3.22
2016-12-17T08:55:50.224Z,-3.19
2016-12-17T08:56:58.914Z,-3.12
2016-12-17T08:58:07.597Z,-3.14
2016-12-17T08:59:16.319Z,-3.09
2016-12-17T09:00:25.004Z,-3.15
2016-12-17T09:01:33.693Z,-3.15
2016-12-17T09:02:42.405Z,-3.17
2016-12-17T09:03:51.092Z,-3.11
2016-12-17T09:04:59.779Z,-3.09
2016-12-17T09:06:08.781Z,-3.2
2016-12-17T09:07:17.471Z,-3.2
2016-12-17T09:08:26.157Z,-3.19
2016-12-17T09:09:34.846Z,-3.11
2016-12-17T09:10:43.559Z,-3.22
2016-12-17T09:11:52.244Z,-3.09
2016-12-17T09:13:00.934Z,-3.15
2016-12-17T09:14:09.621Z,-3.17
2016-12-17T09:15:18.313Z,-3.17
2016-12-17T09:16:27.006Z,-3.12
2016-12-17T09:17:36.002Z,-3.12
2016-12-17T09:18:44.690Z,-3.14
2016-12-17T09:19:53.374Z,-3.09
2016-12-17T09:21:02.058Z,-3.15
2016-12-17T09:22:10.742Z,-3.14
2016-12-17T09:23:19.424Z,-3.09
2016-12-17T09:24:28.106Z,-3.12
2016-12-17T09:25:36.797Z,-3.11
2016-12-17T09:26:45.488Z,-3.17
2016-12-17T09:27:54.176Z,-3.09
2016-12-17T09:29:02.862Z,-3.07
2016-12-17T09:30:11.547Z,-3.08
2016-12-17T09:31:20.229Z,-3.02
2016-12-17T09:32:28.920Z,-2.94
2016-12-17T09:33:37.612Z,-2.9
2016-12-17T09:34:46.293Z,-2.83
2016-12-17T09:35:54.982Z,-2.68
2016-12-17T09:37:03.672Z,-2.73
2016-12-17T09:38:12.356Z,-2.68
2016-12-17T09:39:21.044Z,-2.63
2016-12-17T09:40:29.729Z,-2.55
2016-12-17T09:41:38.410Z,-2.57
2016-12-17T09:42:47.099Z,-2.5
2016-12-17T09:43:55.787Z,-2.51
2016-12-17T09:45:04.471Z,-2.48
2016-12-17T09:46:13.163Z,-2.4
2016-12-17T09:47:21.846Z,-2.42
2016-12-17T09:48:30.531Z,-2.45
2016-12-17T09:49:39.218Z,-2.4
2016-12-17T09:50:47.905Z,-2.44
2016-12-17T09:51:56.596Z,-2.52
2016-12-17T09:53:05.277Z,-2.65
2016-12-17T09:54:13.961Z,-2.62
2016-12-17T09:55:22.650Z,-2.65
2016-12-17T09:56:31.338Z,-2.65
2016-12-17T09:57:40.024Z,-2.65
2016-12-17T09:58:48.711Z,-2.72
2016-12-17T09:59:57.399Z,-2.73
2016-12-17T10:01:06.090Z,-2.72
2016-12-17T10:02:14.774Z,-2.75
2016-12-17T10:03:23.457Z,-2.65
2016-12-17T10:04:32.141Z,-2.69
2016-12-17T10:05:40.829Z,-2.65
2016-12-17T10:06:49.512Z,-2.65
2016-12-17T10:07:58.198Z,-2.62
2016-12-17T10:09:06.886Z,-2.7
2016-12-17T10:10:15.579Z,-2.54
2016-12-17T10:11:24.264Z,-2.51
2016-12-17T10:12:33.009Z,-2.42
2016-12-17T10:13:41.695Z,-2.45
2016-12-17T10:14:50.378Z,-2.37
2016-12-17T10:15:59.385Z,-2.45
2016-12-17T10:17:08.067Z,-2.48
2016-12-17T10:18:16.756Z,-2.44
2016-12-17T10:19:25.449Z,-2.33
2016-12-17T10:20:34.142Z,-2.44
2016-12-17T10:21:42.833Z,-2.32
2016-12-17T10:22:51.521Z,-2.34
2016-12-17T10:24:00.216Z,-2.29
2016-12-17T10:25:08.906Z,-2.34
2016-12-17T10:26:17.595Z,-2.45
2016-12-17T10:27:26.288Z,-2.39
2016-12-17T10:28:34.980Z,-2.47
2016-12-17T10:29:43.671Z,-2.4
2016-12-17T10:30:52.362Z,-2.37
2016-12-17T10:32:01.050Z,-2.47
2016-12-17T10:33:09.740Z,-2.45
2016-12-17T10:34:18.430Z,-2.42
2016-12-17T10:35:27.125Z,-2.45
2016-12-17T10:36:35.811Z,-2.42
2016-12-17T10:37:44.502Z,-2.4
2016-12-17T10:38:53.189Z,-2.54
2016-12-17T10:40:01.877Z,-2.57
2016-12-17T10:41:10.565Z,-2.52
2016-12-17T10:42:19.261Z,-2.47
2016-12-17T10:43:27.966Z,-2.52
2016-12-17T10:44:36.695Z,-2.42
2016-12-17T10:45:45.385Z,-2.55
2016-12-17T10:46:54.072Z,-2.51
2016-12-17T10:48:02.761Z,-2.42
2016-12-17T10:49:11.446Z,-2.39
2016-12-17T10:50:20.146Z,-2.4
2016-12-17T10:51:28.836Z,-2.47
2016-12-17T10:52:37.522Z,-2.5
2016-12-17T10:53:46.527Z,-2.45
2016-12-17T10:54:55.215Z,-2.39
2016-12-17T10:56:03.904Z,-2.4
2016-12-17T10:57:12.593Z,-2.4
2016-12-17T10:58:21.284Z,-2.48
2016-12-17T10:59:29.972Z,-2.5
2016-12-17T11:00:38.663Z,-2.34
2016-12-17T11:01:47.353Z,-2.29
2016-12-17T11:02:56.043Z,-2.39
2016-12-17T11:04:04.725Z,-2.26
2016-12-17T11:05:13.415Z,-2.28
2016-12-17T11:06:22.103Z,-2.28
2016-12-17T11:07:31.113Z,-2.18
2016-12-17T11:08:39.838Z,-2.14
2016-12-17T11:09:48.523Z,-2.23
2016-12-17T11:10:57.208Z,-2.2
2016-12-17T11:12:05.907Z,-2.26
2016-12-17T11:13:14.594Z,-2.26
2016-12-17T11:14:23.281Z,-2.25
2016-12-17T11:15:32.005Z,-2.22
2016-12-17T11:16:41.018Z,-2.13
2016-12-17T11:17:49.739Z,-2.04
2016-12-17T11:18:58.426Z,-2.02
2016-12-17T11:20:07.112Z,-2.07
2016-12-17T11:21:15.806Z,-2.02
2016-12-17T11:22:24.493Z,-1.97
2016-12-17T11:23:33.188Z,-2.04
2016-12-17T11:24:41.900Z,-2.02
2016-12-17T11:25:50.587Z,-2
2016-12-17T11:26:59.280Z,-1.97
2016-12-17T11:28:07.968Z,-1.99
2016-12-17T11:29:16.657Z,-1.99
2016-12-17T11:30:25.346Z,-1.96
2016-12-17T11:31:34.033Z,-1.89
2016-12-17T11:32:42.721Z,-2.05
2016-12-17T11:33:51.412Z,-1.93
2016-12-17T11:35:00.099Z,-1.93
2016-12-17T11:36:09.108Z,-1.96
2016-12-17T11:37:17.796Z,-1.82
2016-12-17T11:38:26.520Z,-1.89
2016-12-17T11:39:35.210Z,-1.9
2016-12-17T11:40:43.901Z,-1.84
2016-12-17T11:41:52.588Z,-1.86
2016-12-17T11:43:01.282Z,-1.84
2016-12-17T11:44:09.972Z,-1.84
2016-12-17T11:45:18.660Z,-1.87
2016-12-17T11:46:27.349Z,-1.81
2016-12-17T11:47:36.037Z,-1.87
2016-12-17T11:48:44.727Z,-1.86
2016-12-17T11:49:53.452Z,-1.81
2016-12-17T11:51:02.143Z,-1.79
2016-12-17T11:52:10.827Z,-1.81
2016-12-17T11:53:19.526Z,-1.81
2016-12-17T11:54:28.212Z,-1.69
2016-12-17T11:55:36.897Z,-1.64
2016-12-17T11:56:45.584Z,-1.66
2016-12-17T11:57:54.272Z,-1.64
2016-12-17T11:59:02.957Z,-1.74
2016-12-17T12:00:11.647Z,-1.78
2016-12-17T12:01:20.335Z,-1.79
2016-12-17T12:02:29.025Z,-1.76
2016-12-17T12:03:37.715Z,-1.78
2016-12-17T12:04:46.409Z,-1.81
2016-12-17T12:05:55.101Z,-1.74
2016-12-17T12:07:03.785Z,-1.76
2016-12-17T12:08:12.472Z,-1.71
2016-12-17T12:09:21.162Z,-1.74
2016-12-17T12:10:29.853Z,-1.64
2016-12-17T12:11:38.574Z,-1.64
2016-12-17T12:12:47.260Z,-1.58
2016-12-17T12:13:55.948Z,-1.61
2016-12-17T12:15:04.637Z,-1.58
2016-12-17T12:16:13.639Z,-1.64
2016-12-17T12:17:22.331Z,-1.63
2016-12-17T12:18:31.020Z,-1.68
2016-12-17T12:19:39.716Z,-1.72
2016-12-17T12:20:48.404Z,-1.63
2016-12-17T12:21:57.093Z,-1.58
2016-12-17T12:23:05.779Z,-1.63
2016-12-17T12:24:14.464Z,-1.57
2016-12-17T12:25:23.149Z,-1.61
2016-12-17T12:26:31.848Z,-1.61
2016-12-17T12:27:40.540Z,-1.64
2016-12-17T12:28:49.228Z,-1.6
2016-12-17T12:29:57.923Z,-1.48
2016-12-17T12:31:06.641Z,-1.54
2016-12-17T12:32:15.326Z,-1.48
2016-12-17T12:33:24.014Z,-1.58
2016-12-17T12:34:32.707Z,-1.64
2016-12-17T12:35:41.398Z,-1.79
2016-12-17T12:36:50.094Z,-1.81
2016-12-17T12:37:58.782Z,-1.92
2016-12-17T12:39:07.476Z,-1.89
2016-12-17T12:40:16.166Z,-1.84
2016-12-17T12:41:24.858Z,-2
2016-12-17T12:42:33.554Z,-1.97
2016-12-17T12:43:42.278Z,-1.92
2016-12-17T12:44:50.970Z,-2.02
2016-12-17T12:45:59.657Z,-2.08
2016-12-17T12:47:08.347Z,-2.15
2016-12-17T12:48:17.045Z,-2.05
2016-12-17T12:49:25.735Z,-2.08
2016-12-17T12:50:34.427Z,-2.07
2016-12-17T12:51:43.147Z,-2.04
2016-12-17T12:52:51.849Z,-2
2016-12-17T12:54:00.544Z,-2.02
2016-12-17T12:55:09.239Z,-1.94
2016-12-17T12:56:17.927Z,-2
2016-12-17T12:57:26.612Z,-2.04
2016-12-17T12:58:35.308Z,-2
2016-12-17T12:59:43.996Z,-1.9
2016-12-17T13:00:52.685Z,-2
2016-12-17T13:02:01.373Z,-2.07
2016-12-17T13:03:10.060Z,-2.1
2016-12-17T13:04:18.762Z,-1.96
2016-12-17T13:05:27.763Z,-2.11
2016-12-17T13:06:36.450Z,-2.14
2016-12-17T13:07:45.143Z,-2.13
2016-12-17T13:08:53.830Z,-2.13
2016-12-17T13:10:02.513Z,-2.18
2016-12-17T13:11:11.207Z,-2.23
2016-12-17T13:12:19.892Z,-2.18
2016-12-17T13:13:28.581Z,-2.25
2016-12-17T13:14:37.301Z,-2.2
2016-12-17T13:15:45.985Z,-2.17
2016-12-17T13:16:54.671Z,-2.32
2016-12-17T13:18:03.360Z,-2.34
2016-12-17T13:19:12.048Z,-2.25
2016-12-17T13:20:20.736Z,-2.26
2016-12-17T13:21:29.421Z,-2.39
2016-12-17T13:22:38.106Z,-2.14
2016-12-17T13:23:46.793Z,-2.26
2016-12-17T13:24:55.476Z,-2.25
2016-12-17T13:26:04.168Z,-2.23
2016-12-17T13:27:12.863Z,-2.29
2016-12-17T13:28:21.567Z,-2.33
2016-12-17T13:29:30.253Z,-2.26
2016-12-17T13:30:38.949Z,-2.25
2016-12-17T13:31:47.642Z,-2.32
2016-12-17T13:32:56.359Z,-2.26
2016-12-17T13:34:05.362Z,-2.2
2016-12-17T13:35:14.045Z,-2.2
2016-12-17T13:36:22.739Z,-2.15
2016-12-17T13:37:31.427Z,-2.17
2016-12-17T13:38:40.111Z,-2.15
2016-12-17T13:39:48.798Z,-2.13
2016-12-17T13:40:57.481Z,-2.13
2016-12-17T13:42:06.165Z,-2.13
2016-12-17T13:43:14.857Z,-2.14
2016-12-17T13:44:23.586Z,-2.13
2016-12-17T13:45:32.306Z,-2
2016-12-17T13:46:40.990Z,-2.1
2016-12-17T13:47:49.675Z,-2.14
2016-12-17T13:48:58.366Z,-2.07
2016-12-17T13:50:07.051Z,-2
2016-12-17T13:51:15.741Z,-2.1
2016-12-17T13:52:24.435Z,-2.1
2016-12-17T13:53:33.126Z,-2.11
2016-12-17T13:54:41.812Z,-2.23
2016-12-17T13:55:50.533Z,-2.22
2016-12-17T13:56:59.221Z,-2.22
2016-12-17T13:58:07.936Z,-2.23
2016-12-17T13:59:16.624Z,-2.23
2016-12-17T14:00:25.311Z,-2.26
2016-12-17T14:01:33.997Z,-2.23
2016-12-17T14:02:42.690Z,-2.2
2016-12-17T14:03:51.381Z,-2.25
2016-12-17T14:05:00.393Z,-2.2
2016-12-17T14:06:09.391Z,-2.2
2016-12-17T14:07:18.080Z,-2.13
2016-12-17T14:08:26.788Z,-2.14
2016-12-17T14:09:35.483Z,-2.13
2016-12-17T14:10:44.175Z,-2.17
2016-12-17T14:11:52.866Z,-2.13
2016-12-17T14:13:01.549Z,-2.13
2016-12-17T14:14:10.235Z,-2.13
2016-12-17T14:15:18.925Z,-2.14
2016-12-17T14:16:27.622Z,-2.05
2016-12-17T14:17:36.316Z,-2.07
2016-12-17T14:18:45.007Z,-1.99
2016-12-17T14:19:54.018Z,-2.04
2016-12-17T14:21:02.711Z,-2.1
2016-12-17T14:22:11.400Z,-2.08
2016-12-17T14:23:20.083Z,-2.04
2016-12-17T14:24:28.767Z,-2.04
2016-12-17T14:25:37.453Z,-1.93
2016-12-17T14:26:46.148Z,-2.04
2016-12-17T14:27:54.836Z,-2.04
2016-12-17T14:29:03.521Z,-2
2016-12-17T14:30:12.210Z,-2.04
2016-12-17T14:31:21.216Z,-2.04
2016-12-17T14:32:29.903Z,-2
2016-12-17T14:33:38.593Z,-2.08
2016-12-17T14:34:47.285Z,-2.11
2016-12-17T14:35:55.974Z,-2.13
2016-12-17T14:37:04.663Z,-2.25
2016-12-17T14:38:13.671Z,-2.18
2016-12-17T14:39:22.357Z,-2.25
2016-12-17T14:40:31.355Z,-2.23
2016-12-17T14:41:40.041Z,-2.28
2016-12-17T14:42:48.757Z,-2.17
2016-12-17T14:43:57.448Z,-2.2
2016-12-17T14:45:06.137Z,-2.23
2016-12-17T14:46:14.829Z,-2.2
2016-12-17T14:47:23.525Z,-2.2
2016-12-17T14:48:32.208Z,-2.23
2016-12-17T14:49:40.901Z,-2.23